Time;durP1;ratioP1;P1;durP2;ratioP2;P2;SDS_P1;SDS_P2;PMS_P1;PMS_P2;Temp;Humidity;BMP_temperature;BMP_pressure;BME280_temperature;BME280_humidity;BME280_pressure;Samples;Min_cycle;Max_cycle;Signal;HPM_P1;HPM_P2
2021/07/05 00:01:16;;;;;;;;;;;23.00;63.90;;;;;;5022549;28;20390;-63
2021/07/05 00:03:41;;;;;;;;;;;23.10;63.80;;;;;;5023070;28;19920;-63
2021/07/05 00:06:07;;;;;;;;;;;23.10;63.80;;;;;;5014956;28;19925;-62
2021/07/05 00:08:32;;;;;;;;;;;23.10;63.60;;;;;;5021491;28;19971;-64
2021/07/05 00:10:58;;;;;;;;;;;23.10;63.50;;;;;;4988483;28;20260;-63
2021/07/05 00:13:23;;;;;;;;;;;23.10;63.50;;;;;;5013814;28;19914;-63
2021/07/05 00:15:50;;;;;;;;;;;23.10;63.60;;;;;;5009200;28;19957;-65
2021/07/05 00:18:16;;;;;;;;;;;23.10;63.60;;;;;;5060689;22;19983;-68
2021/07/05 00:20:42;;;;;;;;;;;23.10;63.60;;;;;;5053092;28;19913;-67
2021/07/05 00:23:07;;;;;;;;;;;23.10;63.80;;;;;;5061812;28;20018;-67
2021/07/05 00:25:33;;;;;;;;;;;23.10;63.70;;;;;;5054827;28;20028;-68
2021/07/05 00:27:58;;;;;;;;;;;23.10;63.90;;;;;;5065696;28;19908;-68
2021/07/05 00:30:24;;;;;;;;;;;23.00;63.50;;;;;;5067257;28;19916;-68
2021/07/05 00:32:50;;;;;;;;;;;23.00;63.70;;;;;;5066866;28;19922;-68
2021/07/05 00:35:16;;;;;;;;;;;23.10;63.40;;;;;;5057178;28;19996;-67
2021/07/05 00:37:41;;;;;;;;;;;23.00;63.30;;;;;;5050157;28;19915;-67
2021/07/05 00:40:07;;;;;;;;;;;23.00;63.70;;;;;;5058257;28;19908;-67
2021/07/05 00:42:33;;;;;;;;;;;23.10;63.60;;;;;;5066247;28;20392;-67
2021/07/05 00:44:58;;;;;;;;;;;23.00;63.30;;;;;;5059235;28;20419;-67
2021/07/05 00:47:23;;;;;;;;;;;23.00;63.40;;;;;;5058262;28;19908;-68
2021/07/05 00:49:49;;;;;;;;;;;23.00;63.50;;;;;;5066226;28;20415;-67
2021/07/05 00:52:14;;;;;;;;;;;23.00;63.40;;;;;;5055570;28;19932;-68
2021/07/05 00:54:40;;;;;;;;;;;23.00;63.10;;;;;;5061495;28;19909;-68
2021/07/05 00:57:19;;;;;;;;;;;23.00;63.20;;;;;;5054269;28;19912;-67
2021/07/05 00:59:46;;;;;;;;;;;23.00;63.30;;;;;;5048436;28;19908;-66
2021/07/05 01:02:11;;;;;;;;;;;23.00;63.30;;;;;;5050257;28;19913;-67
2021/07/05 01:04:37;;;;;;;;;;;23.00;62.70;;;;;;5065034;28;19915;-67
2021/07/05 01:07:02;;;;;;;;;;;22.90;62.90;;;;;;5064996;28;19941;-67
2021/07/05 01:09:27;;;;;;;;;;;23.00;63.20;;;;;;5048230;28;19909;-68
2021/07/05 01:11:53;;;;;;;;;;;23.00;63.00;;;;;;5033662;28;19912;-67
2021/07/05 01:14:18;;;;;;;;;;;23.00;63.00;;;;;;5051026;28;20453;-68
2021/07/05 01:16:44;;;;;;;;;;;22.90;62.80;;;;;;5046984;28;20150;-68
2021/07/05 01:19:09;;;;;;;;;;;22.90;63.30;;;;;;5053390;28;19927;-68
2021/07/05 01:21:35;;;;;;;;;;;22.90;63.20;;;;;;5050288;28;19987;-67
2021/07/05 01:24:00;;;;;;;;;;;22.90;63.10;;;;;;5054490;28;19941;-67
2021/07/05 01:26:26;;;;;;;;;;;22.90;63.30;;;;;;5044296;28;19917;-67
2021/07/05 01:28:51;;;;;;;;;;;22.90;63.30;;;;;;5064828;28;20290;-67
2021/07/05 01:31:16;;;;;;;;;;;22.90;63.10;;;;;;5065587;28;19912;-67
2021/07/05 01:33:42;;;;;;;;;;;22.90;63.10;;;;;;5063422;28;19920;-67
2021/07/05 01:36:09;;;;;;;;;;;22.90;63.10;;;;;;5027800;28;20332;-66
2021/07/05 01:38:34;;;;;;;;;;;22.80;62.90;;;;;;5059082;28;19909;-66
2021/07/05 01:41:01;;;;;;;;;;;22.80;63.10;;;;;;5046066;28;20450;-67
2021/07/05 01:43:28;;;;;;;;;;;22.80;63.10;;;;;;5054993;28;20371;-67
2021/07/05 01:45:53;;;;;;;;;;;22.80;63.00;;;;;;5065722;28;20443;-67
2021/07/05 01:48:19;;;;;;;;;;;22.80;63.20;;;;;;5050764;28;19995;-67
2021/07/05 01:50:44;;;;;;;;;;;22.90;63.10;;;;;;5045255;28;19909;-66
2021/07/05 01:53:10;;;;;;;;;;;22.90;63.00;;;;;;5048330;28;19913;-66
2021/07/05 01:55:36;;;;;;;;;;;22.90;63.20;;;;;;5060126;28;19913;-66
2021/07/05 01:58:02;;;;;;;;;;;22.80;63.00;;;;;;5057625;28;19908;-67
2021/07/05 02:00:27;;;;;;;;;;;22.80;62.90;;;;;;5043214;28;20283;-66
2021/07/05 02:02:53;;;;;;;;;;;22.80;63.10;;;;;;5056335;28;19916;-67
2021/07/05 02:05:18;;;;;;;;;;;22.80;63.00;;;;;;5054285;28;19964;-67
2021/07/05 02:07:44;;;;;;;;;;;22.80;62.90;;;;;;5055319;28;19999;-68
2021/07/05 02:10:10;;;;;;;;;;;22.80;63.00;;;;;;5043371;28;20079;-67
2021/07/05 02:12:36;;;;;;;;;;;22.80;63.00;;;;;;5062979;28;19917;-67
2021/07/05 02:15:02;;;;;;;;;;;22.80;63.10;;;;;;5028422;28;19916;-67
2021/07/05 02:17:28;;;;;;;;;;;22.80;63.10;;;;;;5046999;28;19924;-66
2021/07/05 02:19:53;;;;;;;;;;;22.90;63.20;;;;;;5056590;28;19916;-67
2021/07/05 02:22:19;;;;;;;;;;;22.70;62.90;;;;;;5046429;28;20273;-67
2021/07/05 02:24:44;;;;;;;;;;;22.70;63.10;;;;;;5048910;28;19963;-67
2021/07/05 02:27:10;;;;;;;;;;;22.70;62.80;;;;;;5058206;28;20296;-68
2021/07/05 02:29:35;;;;;;;;;;;22.60;63.00;;;;;;5055717;28;19916;-67
2021/07/05 02:32:01;;;;;;;;;;;22.60;63.10;;;;;;5042828;28;19909;-67
2021/07/05 02:34:26;;;;;;;;;;;22.60;63.20;;;;;;5028604;28;20423;-67
2021/07/05 02:36:52;;;;;;;;;;;22.70;63.10;;;;;;5045176;28;19908;-66
2021/07/05 02:39:17;;;;;;;;;;;22.70;63.10;;;;;;5062260;28;19912;-66
2021/07/05 02:41:43;;;;;;;;;;;22.60;63.00;;;;;;5031811;28;19967;-66
2021/07/05 02:44:08;;;;;;;;;;;22.60;63.90;;;;;;5056766;28;20327;-67
2021/07/05 02:46:34;;;;;;;;;;;22.60;63.10;;;;;;5053728;28;19912;-67
2021/07/05 02:48:59;;;;;;;;;;;22.60;63.10;;;;;;5049601;28;19919;-68
2021/07/05 02:51:25;;;;;;;;;;;22.60;63.10;;;;;;5055841;28;19916;-67
2021/07/05 02:53:50;;;;;;;;;;;22.60;63.10;;;;;;5053251;28;19909;-68
2021/07/05 02:56:16;;;;;;;;;;;22.60;63.10;;;;;;5042106;28;19913;-67
2021/07/05 02:58:41;;;;;;;;;;;22.60;63.10;;;;;;5029697;28;19913;-67
2021/07/05 03:01:10;;;;;;;;;;;22.60;63.10;;;;;;5033885;28;19913;-66
2021/07/05 03:03:35;;;;;;;;;;;22.60;63.20;;;;;;5040812;28;19912;-67
2021/07/05 03:06:01;;;;;;;;;;;22.60;63.20;;;;;;5034987;28;19999;-68
2021/07/05 03:08:26;;;;;;;;;;;22.60;63.10;;;;;;5033646;28;19913;-68
2021/07/05 03:10:52;;;;;;;;;;;22.60;63.20;;;;;;5042557;28;19922;-68
2021/07/05 03:13:18;;;;;;;;;;;22.50;63.30;;;;;;5038562;28;19972;-67
2021/07/05 03:15:43;;;;;;;;;;;22.50;63.30;;;;;;5007609;28;20331;-68
2021/07/05 03:18:09;;;;;;;;;;;22.50;63.30;;;;;;4967074;28;1716983;-68
2021/07/05 03:20:36;;;;;;;;;;;22.60;63.40;;;;;;5023171;28;19920;-68
2021/07/05 03:23:01;;;;;;;;;;;22.60;63.50;;;;;;5026240;28;19920;-68
2021/07/05 03:25:27;;;;;;;;;;;22.60;63.30;;;;;;5034818;28;20130;-68
2021/07/05 03:27:53;;;;;;;;;;;22.50;63.40;;;;;;5030313;28;20188;-67
2021/07/05 03:30:18;;;;;;;;;;;22.50;63.50;;;;;;5046696;28;19913;-68
2021/07/05 03:32:44;;;;;;;;;;;22.60;63.50;;;;;;5046463;28;19917;-68
2021/07/05 03:35:10;;;;;;;;;;;22.60;63.50;;;;;;5046667;28;19925;-69
2021/07/05 03:37:35;;;;;;;;;;;22.60;63.60;;;;;;5033055;28;20490;-68
2021/07/05 03:40:01;;;;;;;;;;;22.60;63.50;;;;;;5044364;28;19958;-68
2021/07/05 03:42:26;;;;;;;;;;;22.60;63.50;;;;;;5034345;28;19917;-68
2021/07/05 03:44:52;;;;;;;;;;;22.70;63.60;;;;;;5045932;28;20318;-68
2021/07/05 03:47:17;;;;;;;;;;;22.60;63.30;;;;;;5029055;28;19913;-67
2021/07/05 03:49:43;;;;;;;;;;;22.60;63.50;;;;;;5036905;28;19912;-68
2021/07/05 03:52:10;;;;;;;;;;;22.60;63.60;;;;;;5037627;28;20013;-68
2021/07/05 03:54:35;;;;;;;;;;;22.60;63.80;;;;;;5022675;28;19913;-67
2021/07/05 03:57:01;;;;;;;;;;;22.70;63.80;;;;;;5033151;28;19984;-68
2021/07/05 03:59:26;;;;;;;;;;;22.70;63.80;;;;;;5036883;28;19912;-68
2021/07/05 04:01:52;;;;;;;;;;;22.70;63.90;;;;;;5045738;28;19913;-68
2021/07/05 04:04:17;;;;;;;;;;;22.70;63.90;;;;;;5028477;28;19913;-68
2021/07/05 04:06:43;;;;;;;;;;;22.70;63.70;;;;;;5045283;28;19917;-68
2021/07/05 04:09:09;;;;;;;;;;;22.70;63.60;;;;;;5040629;28;19920;-66
2021/07/05 04:11:34;;;;;;;;;;;22.70;63.80;;;;;;5033852;28;19917;-68
2021/07/05 04:13:59;;;;;;;;;;;22.70;63.50;;;;;;5030894;28;20374;-68
2021/07/05 04:16:25;;;;;;;;;;;22.60;63.80;;;;;;5028434;28;19986;-67
2021/07/05 04:18:50;;;;;;;;;;;22.70;63.80;;;;;;5031435;28;19925;-69
2021/07/05 04:21:16;;;;;;;;;;;22.70;63.70;;;;;;5035767;28;19921;-69
2021/07/05 04:23:41;;;;;;;;;;;22.70;63.70;;;;;;5037578;28;19917;-68
2021/07/05 04:26:07;;;;;;;;;;;22.70;63.80;;;;;;5038253;28;19917;-68
2021/07/05 04:28:32;;;;;;;;;;;22.70;63.70;;;;;;5038375;28;19917;-67
2021/07/05 04:30:58;;;;;;;;;;;22.70;63.80;;;;;;5036633;28;20368;-71
2021/07/05 04:33:23;;;;;;;;;;;22.60;63.60;;;;;;5043216;28;19936;-67
2021/07/05 04:35:49;;;;;;;;;;;22.60;63.80;;;;;;5034609;28;19923;-69
2021/07/05 04:38:14;;;;;;;;;;;22.60;64.00;;;;;;5019739;28;20388;-69
2021/07/05 04:40:40;;;;;;;;;;;22.60;63.80;;;;;;5037394;28;20136;-70
2021/07/05 04:43:06;;;;;;;;;;;22.60;64.10;;;;;;5013710;28;19918;-69
2021/07/05 04:45:32;;;;;;;;;;;22.60;64.20;;;;;;5026828;28;20176;-70
2021/07/05 04:47:59;;;;;;;;;;;22.60;64.00;;;;;;5029341;28;19923;-70
2021/07/05 04:50:25;;;;;;;;;;;22.70;64.20;;;;;;5041003;28;19917;-71
2021/07/05 04:52:50;;;;;;;;;;;22.70;64.20;;;;;;5040257;28;19993;-70
2021/07/05 04:55:16;;;;;;;;;;;22.60;64.10;;;;;;5048586;28;19917;-70
2021/07/05 04:57:42;;;;;;;;;;;22.70;64.10;;;;;;5041760;28;19925;-70
2021/07/05 05:00:09;;;;;;;;;;;22.70;64.20;;;;;;5052803;28;20441;-70
2021/07/05 05:02:34;;;;;;;;;;;22.60;64.20;;;;;;5051666;28;19917;-71
2021/07/05 05:05:00;;;;;;;;;;;22.60;64.30;;;;;;5043141;28;20387;-68
2021/07/05 05:07:25;;;;;;;;;;;22.60;64.40;;;;;;5046684;28;19920;-69
2021/07/05 05:09:52;;;;;;;;;;;22.60;64.20;;;;;;5043766;28;19917;-69
2021/07/05 05:12:18;;;;;;;;;;;22.50;64.20;;;;;;5044558;28;19923;-69
2021/07/05 05:14:43;;;;;;;;;;;22.50;64.20;;;;;;5044612;28;19916;-69
2021/07/05 05:17:08;;;;;;;;;;;22.50;64.00;;;;;;5049719;28;19916;-66
2021/07/05 05:19:34;;;;;;;;;;;22.50;64.00;;;;;;5042863;28;19921;-69
2021/07/05 05:22:00;;;;;;;;;;;22.60;64.40;;;;;;5036024;28;20458;-68
2021/07/05 05:24:25;;;;;;;;;;;22.50;64.20;;;;;;5043995;28;19925;-68
2021/07/05 05:26:51;;;;;;;;;;;22.50;64.20;;;;;;5038630;28;20053;-69
2021/07/05 05:29:16;;;;;;;;;;;22.50;64.30;;;;;;5064296;28;20375;-66
2021/07/05 05:31:42;;;;;;;;;;;22.60;64.40;;;;;;5049747;28;19913;-70
2021/07/05 05:34:07;;;;;;;;;;;22.60;64.50;;;;;;5054718;28;19921;-68
2021/07/05 05:36:32;;;;;;;;;;;22.60;64.50;;;;;;5023349;28;20307;-68
2021/07/05 05:38:58;;;;;;;;;;;22.60;64.50;;;;;;5037560;28;19919;-66
2021/07/05 05:41:23;;;;;;;;;;;22.60;64.50;;;;;;5055681;28;19917;-71
2021/07/05 05:43:49;;;;;;;;;;;22.60;64.50;;;;;;5050089;28;19913;-68
2021/07/05 05:46:15;;;;;;;;;;;22.60;64.40;;;;;;5044470;28;19955;-69
2021/07/05 05:48:41;;;;;;;;;;;22.60;64.50;;;;;;5050792;28;19928;-71
2021/07/05 05:51:07;;;;;;;;;;;22.60;64.30;;;;;;5054327;28;19913;-70
2021/07/05 05:53:32;;;;;;;;;;;22.60;64.20;;;;;;5051611;28;19966;-70
2021/07/05 05:55:57;;;;;;;;;;;22.60;64.20;;;;;;5060744;28;19913;-71
2021/07/05 05:58:23;;;;;;;;;;;22.60;64.40;;;;;;5059618;28;19916;-71
2021/07/05 06:00:48;;;;;;;;;;;22.60;64.20;;;;;;5064901;28;19970;-71
2021/07/05 06:03:14;;;;;;;;;;;22.60;64.10;;;;;;5064701;28;19986;-71
2021/07/05 06:05:39;;;;;;;;;;;22.60;64.10;;;;;;5056289;28;19928;-71
2021/07/05 06:08:05;;;;;;;;;;;22.50;64.00;;;;;;5061643;28;19913;-71
2021/07/05 06:10:30;;;;;;;;;;;22.60;64.20;;;;;;5045049;28;20387;-71
2021/07/05 06:12:56;;;;;;;;;;;22.50;64.10;;;;;;5052310;28;19919;-71
2021/07/05 06:15:23;;;;;;;;;;;22.60;64.30;;;;;;5041455;28;20440;-71
2021/07/05 06:20:30;;;;;;;;;;;22.60;64.30;;;;;;4942803;28;19930;-64
2021/07/05 06:22:56;;;;;;;;;;;22.50;64.20;;;;;;4934680;28;20433;-64
2021/07/05 06:25:24;;;;;;;;;;;22.50;64.10;;;;;;4942535;28;19929;-64
2021/07/05 06:27:50;;;;;;;;;;;22.50;64.20;;;;;;4939858;28;19918;-64
2021/07/05 06:30:15;;;;;;;;;;;22.50;64.40;;;;;;4951525;28;19921;-64
2021/07/05 06:32:41;;;;;;;;;;;22.50;64.40;;;;;;4960206;28;20001;-65
2021/07/05 06:35:07;;;;;;;;;;;22.50;64.40;;;;;;4957073;28;19915;-65
2021/07/05 06:37:32;;;;;;;;;;;22.50;64.50;;;;;;4961105;28;20390;-64
2021/07/05 06:39:57;;;;;;;;;;;22.50;64.40;;;;;;4951106;28;20633;-64
2021/07/05 06:42:23;;;;;;;;;;;22.40;64.40;;;;;;4946729;28;19914;-64
2021/07/05 06:44:48;;;;;;;;;;;22.40;64.40;;;;;;4952800;28;19922;-64
2021/07/05 06:47:14;;;;;;;;;;;22.40;64.50;;;;;;4946393;28;19926;-64
2021/07/05 06:49:39;;;;;;;;;;;22.40;64.50;;;;;;4942693;28;19922;-64
2021/07/05 06:52:05;;;;;;;;;;;22.40;64.60;;;;;;4943317;28;19930;-64
2021/07/05 06:54:30;;;;;;;;;;;22.30;64.40;;;;;;4942364;28;19918;-64
2021/07/05 06:56:56;;;;;;;;;;;22.40;64.60;;;;;;4943139;28;19924;-63
2021/07/05 06:59:21;;;;;;;;;;;22.40;64.60;;;;;;4961843;28;19922;-69
2021/07/05 07:01:46;;;;;;;;;;;22.40;64.60;;;;;;4952885;28;20304;-64
2021/07/05 07:04:12;;;;;;;;;;;22.40;64.80;;;;;;4946081;28;20025;-64
2021/07/05 07:06:37;;;;;;;;;;;22.40;64.60;;;;;;4948757;28;19922;-64
2021/07/05 07:09:03;;;;;;;;;;;22.40;64.80;;;;;;4942892;28;19922;-65
2021/07/05 07:11:29;;;;;;;;;;;22.40;64.60;;;;;;4943302;28;19974;-64
2021/07/05 07:13:54;;;;;;;;;;;22.40;64.80;;;;;;4944273;28;19921;-65
2021/07/05 07:16:22;;;;;;;;;;;22.40;65.00;;;;;;4943987;28;20510;-64
2021/07/05 07:19:00;;;;;;;;;;;22.40;64.90;;;;;;4949378;28;20009;-64
2021/07/05 07:21:25;;;;;;;;;;;22.40;64.60;;;;;;4963008;28;19914;-65
2021/07/05 07:23:51;;;;;;;;;;;22.40;64.80;;;;;;4946237;28;20767;-64
2021/07/05 07:26:16;;;;;;;;;;;22.40;64.60;;;;;;4964168;28;19918;-65
2021/07/05 07:28:42;;;;;;;;;;;22.40;64.80;;;;;;4966207;28;19996;-65
2021/07/05 07:31:07;;;;;;;;;;;22.50;65.10;;;;;;4956772;28;19986;-64
2021/07/05 07:33:32;;;;;;;;;;;22.40;64.80;;;;;;4941384;28;19919;-64
2021/07/05 07:36:01;;;;;;;;;;;22.40;64.20;;;;;;4972507;28;19919;-64
2021/07/05 07:38:29;;;;;;;;;;;22.40;64.40;;;;;;4959097;28;19914;-65
2021/07/05 07:40:55;;;;;;;;;;;22.40;64.40;;;;;;4942944;28;20406;-65
2021/07/05 07:43:20;;;;;;;;;;;22.40;64.30;;;;;;4944135;28;19915;-65
2021/07/05 07:45:46;;;;;;;;;;;22.40;64.10;;;;;;4942198;28;19926;-65
2021/07/05 07:48:11;;;;;;;;;;;22.40;64.10;;;;;;4960362;28;19929;-65
2021/07/05 07:50:36;;;;;;;;;;;22.40;63.70;;;;;;4955745;28;19914;-64
2021/07/05 07:53:02;;;;;;;;;;;22.30;63.60;;;;;;4941258;28;20757;-64
2021/07/05 07:55:28;;;;;;;;;;;22.30;63.90;;;;;;4943746;28;19915;-64
2021/07/05 07:57:53;;;;;;;;;;;22.30;63.80;;;;;;4941542;28;19922;-64
2021/07/05 08:00:19;;;;;;;;;;;22.30;63.80;;;;;;4942029;28;19974;-64
2021/07/05 08:02:44;;;;;;;;;;;22.30;64.00;;;;;;4940577;28;19915;-64
2021/07/05 08:05:09;;;;;;;;;;;22.40;64.10;;;;;;4940097;28;19918;-62
2021/07/05 08:07:41;;;;;;;;;;;22.40;63.90;;;;;;4941490;28;20408;-62
2021/07/05 08:10:07;;;;;;;;;;;22.30;63.80;;;;;;4941163;28;19931;-63
2021/07/05 08:12:32;;;;;;;;;;;22.30;63.80;;;;;;4940476;28;19914;-63
2021/07/05 08:14:59;;;;;;;;;;;22.40;63.80;;;;;;4941693;28;20307;-63
2021/07/05 08:17:24;;;;;;;;;;;22.40;63.60;;;;;;4957186;28;19921;-63
2021/07/05 08:19:50;;;;;;;;;;;22.30;64.00;;;;;;4962191;28;20524;-62
2021/07/05 08:22:16;;;;;;;;;;;22.40;63.30;;;;;;4958099;28;19921;-63
2021/07/05 08:24:42;;;;;;;;;;;22.40;63.20;;;;;;4941326;28;20201;-62
2021/07/05 08:27:07;;;;;;;;;;;22.40;63.00;;;;;;4941402;28;19919;-63
2021/07/05 08:29:33;;;;;;;;;;;22.30;62.90;;;;;;4952305;28;19923;-63
2021/07/05 08:31:58;;;;;;;;;;;22.40;63.10;;;;;;4958068;28;20308;-63
2021/07/05 08:34:24;;;;;;;;;;;22.40;63.10;;;;;;4956893;28;19920;-62
2021/07/05 08:36:49;;;;;;;;;;;22.40;63.20;;;;;;4960461;28;19918;-63
2021/07/05 08:39:15;;;;;;;;;;;22.40;63.20;;;;;;4960502;28;20132;-63
2021/07/05 08:41:40;;;;;;;;;;;22.40;63.30;;;;;;4942425;28;20795;-62
2021/07/05 08:44:07;;;;;;;;;;;22.40;62.60;;;;;;4952345;28;19961;-62
2021/07/05 08:46:32;;;;;;;;;;;22.40;62.50;;;;;;4940525;28;19954;-62
2021/07/05 08:48:58;;;;;;;;;;;22.40;62.60;;;;;;4940357;28;19954;-63
2021/07/05 08:51:23;;;;;;;;;;;22.40;62.80;;;;;;4951044;28;19914;-63
2021/07/05 08:53:49;;;;;;;;;;;22.40;62.60;;;;;;4947769;28;19919;-63
2021/07/05 08:56:14;;;;;;;;;;;22.40;62.50;;;;;;4952026;28;19925;-62
2021/07/05 08:58:40;;;;;;;;;;;22.40;62.50;;;;;;4946309;28;19918;-63
2021/07/05 09:01:07;;;;;;;;;;;22.40;62.40;;;;;;4943614;28;20300;-62
2021/07/05 09:03:33;;;;;;;;;;;22.40;62.50;;;;;;4945512;28;19922;-63
2021/07/05 09:06:07;;;;;;;;;;;22.40;62.40;;;;;;4943512;28;19923;-62
2021/07/05 09:08:38;;;;;;;;;;;22.40;62.20;;;;;;4952335;28;19918;-63
2021/07/05 09:11:08;;;;;;;;;;;22.40;62.40;;;;;;4938950;28;20164;-63
2021/07/05 09:13:35;;;;;;;;;;;22.40;62.10;;;;;;4955794;28;19949;-63
2021/07/05 09:16:01;;;;;;;;;;;22.40;61.90;;;;;;4957495;28;20147;-63
2021/07/05 09:18:26;;;;;;;;;;;22.30;61.60;;;;;;4945119;28;20021;-63
2021/07/05 09:20:52;;;;;;;;;;;22.40;61.80;;;;;;4942109;28;20005;-63
2021/07/05 09:23:18;;;;;;;;;;;22.40;61.60;;;;;;4922799;29;19915;-63
2021/07/05 09:25:45;;;;;;;;;;;22.40;61.40;;;;;;4960118;28;20658;-62
2021/07/05 09:28:11;;;;;;;;;;;22.30;61.80;;;;;;4944643;28;20376;-63
2021/07/05 09:30:44;;;;;;;;;;;22.40;61.80;;;;;;4970202;28;19921;-62
2021/07/05 09:33:16;;;;;;;;;;;22.40;62.00;;;;;;4960137;28;19914;-62
2021/07/05 09:35:41;;;;;;;;;;;22.40;62.10;;;;;;4960979;28;20331;-62
2021/07/05 09:38:07;;;;;;;;;;;22.40;62.00;;;;;;4961019;28;20057;-63
2021/07/05 09:40:32;;;;;;;;;;;22.40;62.00;;;;;;4961634;28;19918;-63
2021/07/05 09:42:58;;;;;;;;;;;22.40;62.20;;;;;;4955692;28;19914;-62
2021/07/05 09:45:23;;;;;;;;;;;22.40;62.20;;;;;;4951792;28;20391;-62
2021/07/05 09:48:07;;;;;;;;;;;22.40;62.40;;;;;;4963098;28;20058;-63
2021/07/05 09:50:33;;;;;;;;;;;22.40;62.20;;;;;;4959162;28;19918;-62
2021/07/05 09:52:58;;;;;;;;;;;22.40;62.00;;;;;;4952219;28;19925;-62
2021/07/05 09:55:24;;;;;;;;;;;22.40;61.80;;;;;;4942190;28;19919;-63
2021/07/05 09:57:50;;;;;;;;;;;22.40;61.80;;;;;;4959951;28;19921;-63
2021/07/05 10:00:26;;;;;;;;;;;22.40;61.80;;;;;;4964758;28;19921;-63
2021/07/05 10:02:59;;;;;;;;;;;22.40;61.70;;;;;;4954112;28;19919;-62
2021/07/05 10:05:24;;;;;;;;;;;22.40;61.60;;;;;;4955664;28;19922;-62
2021/07/05 10:08:03;;;;;;;;;;;22.40;61.80;;;;;;4955808;28;20307;-63
2021/07/05 10:10:29;;;;;;;;;;;22.40;61.70;;;;;;4963608;28;20561;-62
2021/07/05 10:12:55;;;;;;;;;;;22.30;61.60;;;;;;4953937;28;19926;-62
2021/07/05 10:15:22;;;;;;;;;;;22.40;61.70;;;;;;4951241;28;19947;-62
2021/07/05 10:17:48;;;;;;;;;;;22.40;61.70;;;;;;4963601;28;20038;-62
2021/07/05 10:20:18;;;;;;;;;;;22.40;61.60;;;;;;4963785;28;19930;-62
2021/07/05 10:22:44;;;;;;;;;;;22.40;61.70;;;;;;4962957;28;20073;-62
2021/07/05 10:25:10;;;;;;;;;;;22.40;61.50;;;;;;4964746;28;19915;-62
2021/07/05 10:27:35;;;;;;;;;;;22.40;61.50;;;;;;4962192;28;19961;-63
2021/07/05 10:30:07;;;;;;;;;;;22.40;61.60;;;;;;4957722;28;19924;-63
2021/07/05 10:32:33;;;;;;;;;;;22.40;61.70;;;;;;4965259;28;19928;-63
2021/07/05 10:34:58;;;;;;;;;;;22.40;62.00;;;;;;4963542;28;19914;-62
2021/07/05 10:37:26;;;;;;;;;;;22.40;61.40;;;;;;4963135;28;19969;-63
2021/07/05 10:39:51;;;;;;;;;;;22.40;61.40;;;;;;4949202;28;20382;-63
2021/07/05 10:42:32;;;;;;;;;;;22.40;61.60;;;;;;4946775;28;19922;-62
2021/07/05 10:44:57;;;;;;;;;;;22.40;61.80;;;;;;4967944;28;19925;-63
2021/07/05 10:47:41;;;;;;;;;;;22.40;61.70;;;;;;4982263;28;20020;-63
2021/07/05 10:50:07;;;;;;;;;;;22.40;61.60;;;;;;4963930;28;19919;-62
2021/07/05 10:52:46;;;;;;;;;;;22.40;61.60;;;;;;4965146;28;20288;-62
2021/07/05 10:55:20;;;;;;;;;;;22.40;61.40;;;;;;4959639;28;20416;-62
2021/07/05 10:57:46;;;;;;;;;;;22.40;61.20;;;;;;4965556;28;20061;-62
2021/07/05 11:00:16;;;;;;;;;;;22.40;61.30;;;;;;4962929;28;19925;-62
2021/07/05 11:02:42;;;;;;;;;;;22.40;61.30;;;;;;4955939;28;19915;-62
2021/07/05 11:05:26;;;;;;;;;;;22.40;61.40;;;;;;4961734;28;19925;-62
2021/07/05 11:07:53;;;;;;;;;;;22.40;61.20;;;;;;4956237;28;19918;-62
2021/07/05 11:10:24;;;;;;;;;;;22.40;61.40;;;;;;4966808;28;19914;-63
2021/07/05 11:13:00;;;;;;;;;;;22.40;61.40;;;;;;4960475;28;19914;-62
2021/07/05 11:15:44;;;;;;;;;;;22.40;61.50;;;;;;4977997;28;19961;-64
2021/07/05 11:18:09;;;;;;;;;;;22.40;61.50;;;;;;4970109;28;19920;-62
2021/07/05 11:20:38;;;;;;;;;;;22.40;61.40;;;;;;4977594;28;19914;-62
2021/07/05 11:23:04;;;;;;;;;;;22.40;61.60;;;;;;4966324;28;19928;-62
2021/07/05 11:25:29;;;;;;;;;;;22.40;61.80;;;;;;4958431;28;19922;-63
2021/07/05 11:27:55;;;;;;;;;;;22.40;61.90;;;;;;4963177;28;20036;-62
2021/07/05 11:30:24;;;;;;;;;;;22.40;62.00;;;;;;4962888;28;20331;-62
2021/07/05 11:32:50;;;;;;;;;;;22.40;62.00;;;;;;4956240;28;19927;-62
2021/07/05 11:35:31;;;;;;;;;;;22.40;61.90;;;;;;4953941;28;20382;-62
2021/07/05 11:37:57;;;;;;;;;;;22.40;62.00;;;;;;4975772;28;20320;-62
2021/07/05 11:40:41;;;;;;;;;;;22.40;62.00;;;;;;4963554;28;19914;-62
2021/07/05 11:43:07;;;;;;;;;;;22.40;62.10;;;;;;4958098;28;20058;-62
2021/07/05 11:45:42;;;;;;;;;;;22.40;62.20;;;;;;4951726;28;20714;-62
2021/07/05 11:48:08;;;;;;;;;;;22.50;62.60;;;;;;4965830;28;20016;-62
2021/07/05 11:50:37;;;;;;;;;;;22.50;62.40;;;;;;4970084;28;19914;-62
2021/07/05 11:53:03;;;;;;;;;;;22.50;62.20;;;;;;4930589;28;19915;-62
2021/07/05 11:55:29;;;;;;;;;;;22.50;62.20;;;;;;4959710;28;19922;-62
2021/07/05 11:57:55;;;;;;;;;;;22.50;62.10;;;;;;4952637;28;19914;-62
2021/07/05 12:00:24;;;;;;;;;;;22.50;62.10;;;;;;4940191;28;19945;-62
2021/07/05 12:03:08;;;;;;;;;;;22.50;61.70;;;;;;4941051;28;19942;-62
2021/07/05 12:05:34;;;;;;;;;;;22.50;61.60;;;;;;4942698;28;19977;-62
2021/07/05 12:08:12;;;;;;;;;;;22.50;61.90;;;;;;4952039;28;20376;-62
2021/07/05 12:10:38;;;;;;;;;;;22.50;61.70;;;;;;4949675;28;19914;-62
2021/07/05 12:13:25;;;;;;;;;;;22.50;61.80;;;;;;4943443;28;19922;-63
2021/07/05 12:15:54;;;;;;;;;;;22.50;61.50;;;;;;4940866;28;20026;-63
2021/07/05 12:18:19;;;;;;;;;;;22.50;61.50;;;;;;4938241;28;20017;-62
2021/07/05 12:20:44;;;;;;;;;;;22.50;61.40;;;;;;4941072;28;19923;-62
2021/07/05 12:23:11;;;;;;;;;;;22.50;61.10;;;;;;4957835;28;19922;-62
2021/07/05 12:25:36;;;;;;;;;;;22.50;61.30;;;;;;4961677;28;19926;-62
2021/07/05 12:28:11;;;;;;;;;;;22.40;61.00;;;;;;4940898;28;20004;-63
2021/07/05 12:30:37;;;;;;;;;;;22.50;61.10;;;;;;4941218;28;19914;-62
2021/07/05 12:33:06;;;;;;;;;;;22.50;61.20;;;;;;4960102;28;19915;-63
2021/07/05 12:35:32;;;;;;;;;;;22.50;61.10;;;;;;4961247;28;20031;-62
2021/07/05 12:38:00;;;;;;;;;;;22.40;61.10;;;;;;4958015;28;20065;-62
2021/07/05 12:40:29;;;;;;;;;;;22.40;61.40;;;;;;4941190;28;19921;-62
2021/07/05 12:42:55;;;;;;;;;;;22.40;61.00;;;;;;4958619;28;20041;-62
2021/07/05 12:45:32;;;;;;;;;;;22.40;61.20;;;;;;4961593;28;19954;-62
2021/07/05 12:48:02;;;;;;;;;;;22.40;61.20;;;;;;4956218;28;20061;-62
2021/07/05 12:50:29;;;;;;;;;;;22.40;61.30;;;;;;4967722;28;19914;-62
2021/07/05 12:53:00;;;;;;;;;;;22.50;61.10;;;;;;4979653;28;19914;-62
2021/07/05 12:55:26;;;;;;;;;;;22.40;60.80;;;;;;4962334;28;20434;-62
2021/07/05 12:57:52;;;;;;;;;;;22.50;60.80;;;;;;4948513;28;19947;-62
2021/07/05 13:00:17;;;;;;;;;;;22.50;60.90;;;;;;4966991;28;20279;-62
2021/07/05 13:02:43;;;;;;;;;;;22.50;61.10;;;;;;4960933;28;19914;-61
2021/07/05 13:05:20;;;;;;;;;;;22.50;60.90;;;;;;4949362;28;19931;-62
2021/07/05 13:07:49;;;;;;;;;;;22.50;60.70;;;;;;4950070;28;20019;-62
2021/07/05 13:10:19;;;;;;;;;;;22.50;60.70;;;;;;4958491;28;19965;-62
2021/07/05 13:12:55;;;;;;;;;;;22.50;60.70;;;;;;4960198;28;19926;-61
2021/07/05 13:15:20;;;;;;;;;;;22.50;61.00;;;;;;4958057;28;19922;-62
2021/07/05 13:17:46;;;;;;;;;;;22.50;61.10;;;;;;4960855;28;19914;-62
2021/07/05 13:20:12;;;;;;;;;;;22.50;61.10;;;;;;4970222;28;19928;-61
2021/07/05 13:22:47;;;;;;;;;;;22.50;61.40;;;;;;4979071;28;19921;-62
2021/07/05 13:25:13;;;;;;;;;;;22.50;61.30;;;;;;4978157;28;19913;-62
2021/07/05 13:27:38;;;;;;;;;;;22.50;61.10;;;;;;4961758;28;20001;-62
2021/07/05 13:30:30;;;;;;;;;;;22.50;60.90;;;;;;4961653;28;19976;-61
2021/07/05 13:32:56;;;;;;;;;;;22.50;61.10;;;;;;4965747;28;20056;-62
2021/07/05 13:35:25;;;;;;;;;;;22.50;61.40;;;;;;4978266;28;20292;-62
2021/07/05 13:37:51;;;;;;;;;;;22.50;61.60;;;;;;4979673;28;19922;-62
2021/07/05 13:40:20;;;;;;;;;;;22.50;61.80;;;;;;4979505;28;19914;-62
2021/07/05 13:42:49;;;;;;;;;;;22.50;61.80;;;;;;4980284;28;20363;-62
2021/07/05 13:45:17;;;;;;;;;;;22.50;61.70;;;;;;4978542;28;19914;-62
2021/07/05 13:47:49;;;;;;;;;;;22.50;61.80;;;;;;4969018;28;19951;-62
2021/07/05 13:50:20;;;;;;;;;;;22.50;61.70;;;;;;4957633;28;19914;-62
2021/07/05 13:52:55;;;;;;;;;;;22.50;61.60;;;;;;4980565;28;19921;-61
2021/07/05 13:55:22;;;;;;;;;;;22.50;61.70;;;;;;4969750;28;20343;-62
2021/07/05 13:57:48;;;;;;;;;;;22.50;61.70;;;;;;4965293;28;20296;-62
2021/07/05 14:00:13;;;;;;;;;;;22.60;61.80;;;;;;4974574;28;19921;-62
2021/07/05 14:02:40;;;;;;;;;;;22.60;61.90;;;;;;4964181;28;20581;-62
2021/07/05 14:05:15;;;;;;;;;;;22.60;61.80;;;;;;4956033;28;19918;-63
2021/07/05 14:07:41;;;;;;;;;;;22.60;62.00;;;;;;4981815;28;19918;-61
2021/07/05 14:10:06;;;;;;;;;;;22.60;62.10;;;;;;4978194;28;19918;-62
2021/07/05 14:12:32;;;;;;;;;;;22.60;62.10;;;;;;4962280;28;19921;-62
2021/07/05 14:14:57;;;;;;;;;;;22.60;62.10;;;;;;4978003;28;20436;-62
2021/07/05 14:17:23;;;;;;;;;;;22.60;62.00;;;;;;4972221;28;19926;-62